Terminal Aerodrome Forecast
Issued by NWS

Home | Current Version | Previous Version | Text Only | Print | Product List | Glossary On
Versions: 1 2 3 4 5 6 7 8 9 10 11 12 13 14 15 16 17 18 19 20 21 22 23 24 25 26 27 28 29 30 31 32 33 34 35 36 37 38 39
000
FTUS42 KGSP 300527
TAFHKY
TAF
KHKY 300527Z 3006/3106 32005KT P6SM VCSH BKN060
     FM300900 00000KT 4SM BR SCT040
      TEMPO 3010/3014 3SM BR BKN012
     FM301400 25005KT P6SM SCT050 BKN100 PROB30 3016/3020 4SM TSRA
      BKN040CB
     FM302000 34006KT P6SM BKN090=

USA.gov is the U.S. government's official web portal to all federal, state and local government web resources and services.